Webcam Flughafen St.Gallen-Altenrhein

Live-Bilder und Zeitraffer LSZR / ACH.

 

Live aus Altenrhein
LIVE
LSZR 180650Z VRB02KT 9999 FEW080 BKN090 03/02 Q1027 NOSIG RMK A
Zeitraffer heute
2020-01-18 00:00:00
LSZR 172250Z AUTO VRB04KT 9999 -RA BKN026 07/04 Q1023